sensor_id;sensor_type;location;lat;lon;timestamp;pressure;altitude;pressure_sealevel;temperature
71807;BMP280;59655;42.590;23.364;2022-08-19T00:00:16;91482.31;;;23.01
71807;BMP280;59655;42.590;23.364;2022-08-19T00:02:42;91477.00;;;23.03
71807;BMP280;59655;42.590;23.364;2022-08-19T00:05:09;91484.97;;;22.99
71807;BMP280;59655;42.590;23.364;2022-08-19T00:07:35;91480.56;;;22.89
71807;BMP280;59655;42.590;23.364;2022-08-19T00:10:00;91487.91;;;22.87
71807;BMP280;59655;42.590;23.364;2022-08-19T00:12:26;91479.84;;;22.89
71807;BMP280;59655;42.590;23.364;2022-08-19T00:14:52;91483.25;;;22.89
71807;BMP280;59655;42.590;23.364;2022-08-19T00:17:19;91473.22;;;22.92
71807;BMP280;59655;42.590;23.364;2022-08-19T00:19:45;91475.28;;;22.93
71807;BMP280;59655;42.590;23.364;2022-08-19T00:22:10;91479.41;;;22.94
71807;BMP280;59655;42.590;23.364;2022-08-19T00:24:36;91486.81;;;22.94
71807;BMP280;59655;42.590;23.364;2022-08-19T00:27:03;91485.28;;;22.89
71807;BMP280;59655;42.590;23.364;2022-08-19T00:29:28;91486.09;;;22.93
71807;BMP280;59655;42.590;23.364;2022-08-19T00:31:54;91494.63;;;22.86
71807;BMP280;59655;42.590;23.364;2022-08-19T00:34:22;91487.53;;;22.94
71807;BMP280;59655;42.590;23.364;2022-08-19T00:36:48;91491.47;;;22.91
71807;BMP280;59655;42.590;23.364;2022-08-19T00:39:15;91496.44;;;22.79
71807;BMP280;59655;42.590;23.364;2022-08-19T00:41:42;91487.44;;;22.75
71807;BMP280;59655;42.590;23.364;2022-08-19T00:44:17;91485.28;;;22.89
71807;BMP280;59655;42.590;23.364;2022-08-19T00:46:46;91483.59;;;22.80
71807;BMP280;59655;42.590;23.364;2022-08-19T00:49:36;91484.97;;;22.81
71807;BMP280;59655;42.590;23.364;2022-08-19T00:52:13;91481.78;;;22.86
71807;BMP280;59655;42.590;23.364;2022-08-19T00:54:39;91478.38;;;22.86
71807;BMP280;59655;42.590;23.364;2022-08-19T00:57:08;91474.69;;;22.77
71807;BMP280;59655;42.590;23.364;2022-08-19T00:59:35;91478.56;;;22.72
71807;BMP280;59655;42.590;23.364;2022-08-19T01:02:02;91481.66;;;22.64
71807;BMP280;59655;42.590;23.364;2022-08-19T01:04:28;91482.56;;;22.71
71807;BMP280;59655;42.590;23.364;2022-08-19T01:06:53;91480.50;;;22.69
71807;BMP280;59655;42.590;23.364;2022-08-19T01:09:20;91476.56;;;22.72
71807;BMP280;59655;42.590;23.364;2022-08-19T01:11:45;91478.56;;;22.72
71807;BMP280;59655;42.590;23.364;2022-08-19T01:14:12;91475.84;;;22.72
71807;BMP280;59655;42.590;23.364;2022-08-19T01:16:39;91472.63;;;22.76
71807;BMP280;59655;42.590;23.364;2022-08-19T01:19:18;91469.91;;;22.76
71807;BMP280;59655;42.590;23.364;2022-08-19T01:21:59;91468.28;;;22.68
71807;BMP280;59655;42.590;23.364;2022-08-19T01:24:27;91464.25;;;22.69
71807;BMP280;59655;42.590;23.364;2022-08-19T01:26:52;91470.06;;;22.62
71807;BMP280;59655;42.590;23.364;2022-08-19T01:29:18;91461.31;;;22.63
71807;BMP280;59655;42.590;23.364;2022-08-19T01:31:43;91462.25;;;22.52
71807;BMP280;59655;42.590;23.364;2022-08-19T01:34:09;91465.56;;;22.51
71807;BMP280;59655;42.590;23.364;2022-08-19T01:36:39;91464.25;;;22.52
71807;BMP280;59655;42.590;23.364;2022-08-19T01:39:09;91460.69;;;22.47
71807;BMP280;59655;42.590;23.364;2022-08-19T01:41:35;91463.34;;;22.45
71807;BMP280;59655;42.590;23.364;2022-08-19T01:44:02;91468.22;;;22.48
71807;BMP280;59655;42.590;23.364;2022-08-19T01:46:29;91462.66;;;22.44
71807;BMP280;59655;42.590;23.364;2022-08-19T01:48:54;91471.47;;;22.45
71807;BMP280;59655;42.590;23.364;2022-08-19T01:51:20;91471.38;;;22.43
71807;BMP280;59655;42.590;23.364;2022-08-19T01:53:47;91473.84;;;22.37
71807;BMP280;59655;42.590;23.364;2022-08-19T01:56:13;91469.72;;;22.36
71807;BMP280;59655;42.590;23.364;2022-08-19T01:58:41;91470.19;;;22.30
71807;BMP280;59655;42.590;23.364;2022-08-19T02:01:11;91462.16;;;22.32
71807;BMP280;59655;42.590;23.364;2022-08-19T02:03:37;91464.25;;;22.34
71807;BMP280;59655;42.590;23.364;2022-08-19T02:06:04;91467.50;;;22.30
71807;BMP280;59655;42.590;23.364;2022-08-19T02:08:31;91458.84;;;22.34
71807;BMP280;59655;42.590;23.364;2022-08-19T02:10:57;91466.34;;;22.35
71807;BMP280;59655;42.590;23.364;2022-08-19T02:13:24;91456.22;;;22.36
71807;BMP280;59655;42.590;23.364;2022-08-19T02:15:50;91467.94;;;22.42
71807;BMP280;59655;42.590;23.364;2022-08-19T02:18:15;91468.66;;;22.43
71807;BMP280;59655;42.590;23.364;2022-08-19T02:20:42;91461.72;;;22.38
71807;BMP280;59655;42.590;23.364;2022-08-19T02:23:08;91465.94;;;22.43
71807;BMP280;59655;42.590;23.364;2022-08-19T02:25:34;91459.06;;;22.40
71807;BMP280;59655;42.590;23.364;2022-08-19T02:27:59;91462.38;;;22.38
71807;BMP280;59655;42.590;23.364;2022-08-19T02:30:25;91467.28;;;22.42
71807;BMP280;59655;42.590;23.364;2022-08-19T02:32:51;91463.56;;;22.33
71807;BMP280;59655;42.590;23.364;2022-08-19T02:35:17;91465.72;;;22.37
71807;BMP280;59655;42.590;23.364;2022-08-19T02:37:43;91466.81;;;22.47
71807;BMP280;59655;42.590;23.364;2022-08-19T02:40:28;91462.00;;;22.46
71807;BMP280;59655;42.590;23.364;2022-08-19T02:42:53;91468.59;;;22.41
71807;BMP280;59655;42.590;23.364;2022-08-19T02:45:19;91468.66;;;22.43
71807;BMP280;59655;42.590;23.364;2022-08-19T02:47:45;91475.59;;;22.48
71807;BMP280;59655;42.590;23.364;2022-08-19T02:50:10;91471.03;;;22.35
71807;BMP280;59655;42.590;23.364;2022-08-19T02:52:36;91463.94;;;22.26
71807;BMP280;59655;42.590;23.364;2022-08-19T02:55:02;91461.00;;;22.19
71807;BMP280;59655;42.590;23.364;2022-08-19T02:57:30;91474.50;;;22.19
71807;BMP280;59655;42.590;23.364;2022-08-19T02:59:56;91470.50;;;22.20
71807;BMP280;59655;42.590;23.364;2022-08-19T03:02:21;91464.38;;;22.20
71807;BMP280;59655;42.590;23.364;2022-08-19T03:04:47;91469.00;;;22.17
71807;BMP280;59655;42.590;23.364;2022-08-19T03:07:14;91469.09;;;22.19
71807;BMP280;59655;42.590;23.364;2022-08-19T03:09:39;91472.59;;;22.22
71807;BMP280;59655;42.590;23.364;2022-08-19T03:12:05;91466.72;;;22.28
71807;BMP280;59655;42.590;23.364;2022-08-19T03:14:34;91467.94;;;22.24
71807;BMP280;59655;42.590;23.364;2022-08-19T03:17:00;91455.50;;;22.17
71807;BMP280;59655;42.590;23.364;2022-08-19T03:19:26;91466.31;;;22.17
71807;BMP280;59655;42.590;23.364;2022-08-19T03:21:53;91463.50;;;22.15
71807;BMP280;59655;42.590;23.364;2022-08-19T03:24:19;91464.91;;;22.16
71807;BMP280;59655;42.590;23.364;2022-08-19T03:26:50;91460.13;;;22.15
71807;BMP280;59655;42.590;23.364;2022-08-19T03:29:18;91458.66;;;22.12
71807;BMP280;59655;42.590;23.364;2022-08-19T03:31:45;91459.28;;;22.10
71807;BMP280;59655;42.590;23.364;2022-08-19T03:34:12;91465.66;;;22.01
71807;BMP280;59655;42.590;23.364;2022-08-19T03:36:38;91462.81;;;21.97
71807;BMP280;59655;42.590;23.364;2022-08-19T03:39:04;91470.75;;;21.93
71807;BMP280;59655;42.590;23.364;2022-08-19T03:41:32;91474.13;;;21.93
71807;BMP280;59655;42.590;23.364;2022-08-19T03:43:59;91463.25;;;21.91
71807;BMP280;59655;42.590;23.364;2022-08-19T03:46:28;91472.19;;;21.96
71807;BMP280;59655;42.590;23.364;2022-08-19T03:48:59;91463.94;;;21.92
71807;BMP280;59655;42.590;23.364;2022-08-19T03:51:29;91475.91;;;21.87
71807;BMP280;59655;42.590;23.364;2022-08-19T03:53:56;91475.91;;;21.87
71807;BMP280;59655;42.590;23.364;2022-08-19T03:56:22;91478.59;;;21.87
71807;BMP280;59655;42.590;23.364;2022-08-19T03:58:47;91474.75;;;21.92
71807;BMP280;59655;42.590;23.364;2022-08-19T04:01:16;91484.09;;;21.89
71807;BMP280;59655;42.590;23.364;2022-08-19T04:03:43;91484.25;;;21.93
71807;BMP280;59655;42.590;23.364;2022-08-19T04:06:11;91486.69;;;21.87
71807;BMP280;59655;42.590;23.364;2022-08-19T04:08:39;91498.91;;;21.88
71807;BMP280;59655;42.590;23.364;2022-08-19T04:11:08;91492.28;;;21.91
71807;BMP280;59655;42.590;23.364;2022-08-19T04:13:34;91490.94;;;21.92
71807;BMP280;59655;42.590;23.364;2022-08-19T04:16:00;91495.06;;;21.93
71807;BMP280;59655;42.590;23.364;2022-08-19T04:18:25;91496.28;;;21.90
71807;BMP280;59655;42.590;23.364;2022-08-19T04:20:51;91496.97;;;21.90
71807;BMP280;59655;42.590;23.364;2022-08-19T04:23:17;91499.94;;;21.96
71807;BMP280;59655;42.590;23.364;2022-08-19T04:25:44;91504.09;;;21.99
71807;BMP280;59655;42.590;23.364;2022-08-19T04:28:12;91500.81;;;22.01
71807;BMP280;59655;42.590;23.364;2022-08-19T04:30:43;91504.25;;;22.04
71807;BMP280;59655;42.590;23.364;2022-08-19T04:33:09;91510.38;;;22.04
71807;BMP280;59655;42.590;23.364;2022-08-19T04:35:40;91503.56;;;22.03
71807;BMP280;59655;42.590;23.364;2022-08-19T04:38:07;91503.50;;;22.01
71807;BMP280;59655;42.590;23.364;2022-08-19T04:40:34;91506.28;;;22.03
71807;BMP280;59655;42.590;23.364;2022-08-19T04:43:23;91496.31;;;22.08
71807;BMP280;59655;42.590;23.364;2022-08-19T04:45:48;91504.34;;;22.06
71807;BMP280;59655;42.590;23.364;2022-08-19T04:48:13;91503.22;;;22.11
71807;BMP280;59655;42.590;23.364;2022-08-19T04:50:40;91494.59;;;22.14
71807;BMP280;59655;42.590;23.364;2022-08-19T04:53:07;91495.94;;;22.15
71807;BMP280;59655;42.590;23.364;2022-08-19T04:55:32;91500.00;;;22.14
71807;BMP280;59655;42.590;23.364;2022-08-19T04:57:57;91496.03;;;22.17
71807;BMP280;59655;42.590;23.364;2022-08-19T05:00:23;91505.09;;;22.24
71807;BMP280;59655;42.590;23.364;2022-08-19T05:02:49;91506.66;;;22.29
71807;BMP280;59655;42.590;23.364;2022-08-19T05:05:14;91502.13;;;22.34
71807;BMP280;59655;42.590;23.364;2022-08-19T05:07:39;91507.69;;;22.38
71807;BMP280;59655;42.590;23.364;2022-08-19T05:10:06;91510.44;;;22.40
71807;BMP280;59655;42.590;23.364;2022-08-19T05:12:32;91509.22;;;22.43
71807;BMP280;59655;42.590;23.364;2022-08-19T05:14:58;91511.31;;;22.44
71807;BMP280;59655;42.590;23.364;2022-08-19T05:17:25;91514.19;;;22.48
71807;BMP280;59655;42.590;23.364;2022-08-19T05:19:50;91514.25;;;22.51
71807;BMP280;59655;42.590;23.364;2022-08-19T05:22:34;91506.78;;;22.49
71807;BMP280;59655;42.590;23.364;2022-08-19T05:25:08;91510.38;;;22.56
71807;BMP280;59655;42.590;23.364;2022-08-19T05:27:34;91515.97;;;22.60
71807;BMP280;59655;42.590;23.364;2022-08-19T05:30:00;91511.25;;;22.60
71807;BMP280;59655;42.590;23.364;2022-08-19T05:32:26;91509.31;;;22.63
71807;BMP280;59655;42.590;23.364;2022-08-19T05:34:52;91510.94;;;22.70
71807;BMP280;59655;42.590;23.364;2022-08-19T05:37:17;91510.34;;;22.71
71807;BMP280;59655;42.590;23.364;2022-08-19T05:39:43;91515.19;;;22.75
71807;BMP280;59655;42.590;23.364;2022-08-19T05:42:11;91514.66;;;22.79
71807;BMP280;59655;42.590;23.364;2022-08-19T05:44:40;91514.75;;;22.81
71807;BMP280;59655;42.590;23.364;2022-08-19T05:47:09;91516.91;;;22.84
71807;BMP280;59655;42.590;23.364;2022-08-19T05:49:35;91523.78;;;22.87
71807;BMP280;59655;42.590;23.364;2022-08-19T05:52:04;91515.13;;;22.91
71807;BMP280;59655;42.590;23.364;2022-08-19T05:54:30;91518.59;;;22.93
71807;BMP280;59655;42.590;23.364;2022-08-19T05:56:56;91511.16;;;22.94
71807;BMP280;59655;42.590;23.364;2022-08-19T05:59:22;91522.63;;;22.92
71807;BMP280;59655;42.590;23.364;2022-08-19T06:01:50;91527.41;;;22.94
71807;BMP280;59655;42.590;23.364;2022-08-19T06:04:18;91523.41;;;22.95
71807;BMP280;59655;42.590;23.364;2022-08-19T06:06:45;91520.16;;;22.99
71807;BMP280;59655;42.590;23.364;2022-08-19T06:09:11;91530.44;;;23.02
71807;BMP280;59655;42.590;23.364;2022-08-19T06:11:38;91523.75;;;23.05
71807;BMP280;59655;42.590;23.364;2022-08-19T06:14:10;91534.69;;;23.07
71807;BMP280;59655;42.590;23.364;2022-08-19T06:16:38;91526.63;;;23.09
71807;BMP280;59655;42.590;23.364;2022-08-19T06:19:06;91526.63;;;23.09
71807;BMP280;59655;42.590;23.364;2022-08-19T06:21:33;91530.81;;;23.12
71807;BMP280;59655;42.590;23.364;2022-08-19T06:26:25;91535.75;;;23.18
71807;BMP280;59655;42.590;23.364;2022-08-19T06:28:52;91535.81;;;23.20
71807;BMP280;59655;42.590;23.364;2022-08-19T06:31:25;91542.69;;;23.23
71807;BMP280;59655;42.590;23.364;2022-08-19T06:33:51;91533.97;;;23.25
71807;BMP280;59655;42.590;23.364;2022-08-19T06:36:30;91537.44;;;23.27
71807;BMP280;59655;42.590;23.364;2022-08-19T06:39:00;91541.53;;;23.28
71807;BMP280;59655;42.590;23.364;2022-08-19T06:41:25;91537.59;;;23.31
71807;BMP280;59655;42.590;23.364;2022-08-19T06:43:51;91541.06;;;23.34
71807;BMP280;59655;42.590;23.364;2022-08-19T06:46:18;91532.31;;;23.35
71807;BMP280;59655;42.590;23.364;2022-08-19T06:48:45;91545.25;;;23.37
71807;BMP280;59655;42.590;23.364;2022-08-19T06:51:12;91540.59;;;23.39
71807;BMP280;59655;42.590;23.364;2022-08-19T06:53:40;91541.97;;;23.40
71807;BMP280;59655;42.590;23.364;2022-08-19T06:56:10;91537.34;;;23.43
71807;BMP280;59655;42.590;23.364;2022-08-19T06:58:36;91541.47;;;23.46
71807;BMP280;59655;42.590;23.364;2022-08-19T07:01:02;91531.44;;;23.49
71807;BMP280;59655;42.590;23.364;2022-08-19T07:03:32;91545.66;;;23.49
71807;BMP280;59655;42.590;23.364;2022-08-19T07:06:06;91545.13;;;23.53
71807;BMP280;59655;42.590;23.364;2022-08-19T07:08:33;91541.06;;;23.54
71807;BMP280;59655;42.590;23.364;2022-08-19T07:11:02;91551.38;;;23.57
71807;BMP280;59655;42.590;23.364;2022-08-19T07:13:27;91548.66;;;23.57
71807;BMP280;59655;42.590;23.364;2022-08-19T07:15:52;91548.81;;;23.61
71807;BMP280;59655;42.590;23.364;2022-08-19T07:18:19;91547.50;;;23.62
71807;BMP280;59655;42.590;23.364;2022-08-19T07:20:46;91548.88;;;23.63
71807;BMP280;59655;42.590;23.364;2022-08-19T07:23:13;91551.66;;;23.65
71807;BMP280;59655;42.590;23.364;2022-08-19T07:25:39;91553.81;;;23.69
71807;BMP280;59655;42.590;23.364;2022-08-19T07:28:04;91552.50;;;23.70
71807;BMP280;59655;42.590;23.364;2022-08-19T07:30:37;91557.31;;;23.71
71807;BMP280;59655;42.590;23.364;2022-08-19T07:33:02;91555.28;;;23.72
71807;BMP280;59655;42.590;23.364;2022-08-19T07:35:28;91554.69;;;23.74
71807;BMP280;59655;42.590;23.364;2022-08-19T07:37:53;91558.78;;;23.75
71807;BMP280;59655;42.590;23.364;2022-08-19T07:40:19;91558.78;;;23.75
71807;BMP280;59655;42.590;23.364;2022-08-19T07:42:44;91561.53;;;23.77
71807;BMP280;59655;42.590;23.364;2022-08-19T07:45:10;91551.41;;;23.77
71807;BMP280;59655;42.590;23.364;2022-08-19T07:47:35;91552.78;;;23.78
71807;BMP280;59655;42.590;23.364;2022-08-19T07:50:01;91558.88;;;23.79
71807;BMP280;59655;42.590;23.364;2022-08-19T07:52:29;91558.97;;;23.81
71807;BMP280;59655;42.590;23.364;2022-08-19T07:54:55;91554.25;;;23.81
71807;BMP280;59655;42.590;23.364;2022-08-19T07:57:20;91560.38;;;23.82
71807;BMP280;59655;42.590;23.364;2022-08-19T07:59:46;91562.44;;;23.83
71807;BMP280;59655;42.590;23.364;2022-08-19T08:02:11;91561.84;;;23.85
71807;BMP280;59655;42.590;23.364;2022-08-19T08:04:36;91563.84;;;23.84
71807;BMP280;59655;42.590;23.364;2022-08-19T08:07:20;91564.69;;;23.89
71807;BMP280;59655;42.590;23.364;2022-08-19T08:10:06;91566.06;;;23.90
71807;BMP280;59655;42.590;23.364;2022-08-19T08:12:34;91566.06;;;23.90
71807;BMP280;59655;42.590;23.364;2022-08-19T08:15:03;91564.84;;;23.93
71807;BMP280;59655;42.590;23.364;2022-08-19T08:17:29;91558.06;;;23.94
71807;BMP280;59655;42.590;23.364;2022-08-19T08:19:55;91556.81;;;23.97
71807;BMP280;59655;42.590;23.364;2022-08-19T08:22:23;91560.22;;;23.98
71807;BMP280;59655;42.590;23.364;2022-08-19T08:25:15;91552.22;;;24.02
71807;BMP280;59655;42.590;23.364;2022-08-19T08:27:43;91560.34;;;24.02
71807;BMP280;59655;42.590;23.364;2022-08-19T08:30:11;91558.31;;;24.00
71807;BMP280;59655;42.590;23.364;2022-08-19T08:32:38;91559.66;;;24.01
71807;BMP280;59655;42.590;23.364;2022-08-19T08:35:06;91554.94;;;24.02
71807;BMP280;59655;42.590;23.364;2022-08-19T08:37:32;91554.25;;;24.01
71807;BMP280;59655;42.590;23.364;2022-08-19T08:39:58;91563.78;;;24.02
71807;BMP280;59655;42.590;23.364;2022-08-19T08:42:36;91557.03;;;24.03
71807;BMP280;59655;42.590;23.364;2022-08-19T08:45:13;91549.59;;;24.04
71807;BMP280;59655;42.590;23.364;2022-08-19T08:47:44;91556.41;;;24.05
71807;BMP280;59655;42.590;23.364;2022-08-19T08:50:34;91550.97;;;24.05
71807;BMP280;59655;42.590;23.364;2022-08-19T08:53:02;91553.06;;;24.06
71807;BMP280;59655;42.590;23.364;2022-08-19T08:55:29;91548.41;;;24.09
71807;BMP280;59655;42.590;23.364;2022-08-19T08:57:59;91550.50;;;24.10
71807;BMP280;59655;42.590;23.364;2022-08-19T09:00:40;91551.09;;;24.09
71807;BMP280;59655;42.590;23.364;2022-08-19T09:03:22;91551.94;;;24.13
71807;BMP280;59655;42.590;23.364;2022-08-19T09:09:20;91546.59;;;24.15
71807;BMP280;59655;42.590;23.364;2022-08-19T09:17:09;91539.28;;;24.20
71807;BMP280;59655;42.590;23.364;2022-08-19T09:20:02;91542.19;;;24.26
71807;BMP280;59655;42.590;23.364;2022-08-19T09:22:38;91536.88;;;24.30
71807;BMP280;59655;42.590;23.364;2022-08-19T09:25:07;91538.97;;;24.32
71807;BMP280;59655;42.590;23.364;2022-08-19T09:27:33;91543.22;;;24.37
71807;BMP280;59655;42.590;23.364;2022-08-19T09:29:58;91535.75;;;24.37
71807;BMP280;59655;42.590;23.364;2022-08-19T09:32:24;91533.81;;;24.40
71807;BMP280;59655;42.590;23.364;2022-08-19T09:34:51;91542.56;;;24.38
71807;BMP280;59655;42.590;23.364;2022-08-19T09:37:19;91535.16;;;24.39
71807;BMP280;59655;42.590;23.364;2022-08-19T09:39:45;91538.59;;;24.41
71807;BMP280;59655;42.590;23.364;2022-08-19T09:42:10;91525.69;;;24.40
71807;BMP280;59655;42.590;23.364;2022-08-19T09:44:39;91538.03;;;24.45
71807;BMP280;59655;42.590;23.364;2022-08-19T09:47:05;91532.06;;;24.49
71807;BMP280;59655;42.590;23.364;2022-08-19T09:49:32;91531.44;;;24.50
71807;BMP280;59655;42.590;23.364;2022-08-19T09:51:58;91526.00;;;24.50
71807;BMP280;59655;42.590;23.364;2022-08-19T09:54:23;91526.72;;;24.51
71807;BMP280;59655;42.590;23.364;2022-08-19T09:56:49;91530.09;;;24.51
71807;BMP280;59655;42.590;23.364;2022-08-19T09:59:15;91524.78;;;24.55
71807;BMP280;59655;42.590;23.364;2022-08-19T10:01:41;91528.34;;;24.60
71807;BMP280;59655;42.590;23.364;2022-08-19T10:04:06;91529.94;;;24.69
71807;BMP280;59655;42.590;23.364;2022-08-19T10:06:37;91520.50;;;24.70
71807;BMP280;59655;42.590;23.364;2022-08-19T10:09:04;91521.19;;;24.70
71807;BMP280;59655;42.590;23.364;2022-08-19T10:11:32;91505.34;;;24.85
71807;BMP280;59655;42.590;23.364;2022-08-19T10:13:58;91515.44;;;24.82
71807;BMP280;59655;42.590;23.364;2022-08-19T10:16:24;91510.66;;;24.81
71807;BMP280;59655;42.590;23.364;2022-08-19T10:18:50;91504.56;;;24.82
71807;BMP280;59655;42.590;23.364;2022-08-19T10:21:22;91504.38;;;24.98
71807;BMP280;59655;42.590;23.364;2022-08-19T10:23:50;91505.78;;;25.01
71807;BMP280;59655;42.590;23.364;2022-08-19T10:26:17;91505.78;;;25.01
71807;BMP280;59655;42.590;23.364;2022-08-19T10:28:42;91505.63;;;24.95
71807;BMP280;59655;42.590;23.364;2022-08-19T10:31:11;91506.88;;;24.92
71807;BMP280;59655;42.590;23.364;2022-08-19T10:33:38;91500.06;;;24.91
71807;BMP280;59655;42.590;23.364;2022-08-19T10:36:09;91492.69;;;24.93
71807;BMP280;59655;42.590;23.364;2022-08-19T10:38:36;91496.16;;;24.96
71807;BMP280;59655;42.590;23.364;2022-08-19T10:41:12;91491.53;;;25.01
71807;BMP280;59655;42.590;23.364;2022-08-19T10:43:38;91492.22;;;25.01
71807;BMP280;59655;42.590;23.364;2022-08-19T10:46:06;91497.03;;;25.03
71807;BMP280;59655;42.590;23.364;2022-08-19T10:48:32;91490.97;;;25.04
71807;BMP280;59655;42.590;23.364;2022-08-19T10:50:58;91488.34;;;25.08
71807;BMP280;59655;42.590;23.364;2022-08-19T10:53:42;91497.19;;;25.09
71807;BMP280;59655;42.590;23.364;2022-08-19T10:56:07;91492.59;;;25.13
71807;BMP280;59655;42.590;23.364;2022-08-19T10:58:51;91494.06;;;25.18
71807;BMP280;59655;42.590;23.364;2022-08-19T11:01:18;91491.53;;;25.25
71807;BMP280;59655;42.590;23.364;2022-08-19T11:03:43;91490.31;;;25.30
71807;BMP280;59655;42.590;23.364;2022-08-19T11:06:11;91482.88;;;25.32
71807;BMP280;59655;42.590;23.364;2022-08-19T11:08:37;91491.03;;;25.32
71807;BMP280;59655;42.590;23.364;2022-08-19T11:11:04;91488.44;;;25.36
71807;BMP280;59655;42.590;23.364;2022-08-19T11:13:30;91488.44;;;25.36
71807;BMP280;59655;42.590;23.364;2022-08-19T11:16:05;91481.91;;;25.45
71807;BMP280;59655;42.590;23.364;2022-08-19T11:18:32;91485.38;;;25.48
71807;BMP280;59655;42.590;23.364;2022-08-19T11:21:23;91477.91;;;25.49
71807;BMP280;59655;42.590;23.364;2022-08-19T11:23:52;91476.81;;;25.58
71807;BMP280;59655;42.590;23.364;2022-08-19T11:26:18;91476.84;;;25.60
71807;BMP280;59655;42.590;23.364;2022-08-19T11:28:44;91475.63;;;25.65
71807;BMP280;59655;42.590;23.364;2022-08-19T11:31:13;91470.88;;;25.65
71807;BMP280;59655;42.590;23.364;2022-08-19T11:33:39;91475.88;;;25.75
71807;BMP280;59655;42.590;23.364;2022-08-19T11:36:04;91475.94;;;25.77
71807;BMP280;59655;42.590;23.364;2022-08-19T11:38:30;91465.06;;;25.77
71807;BMP280;59655;42.590;23.364;2022-08-19T11:41:00;91467.16;;;25.79
71807;BMP280;59655;42.590;23.364;2022-08-19T11:43:27;91462.53;;;25.85
71807;BMP280;59655;42.590;23.364;2022-08-19T11:45:54;91466.66;;;25.86
71807;BMP280;59655;42.590;23.364;2022-08-19T11:48:20;91463.97;;;25.88
71807;BMP280;59655;42.590;23.364;2022-08-19T11:50:50;91462.09;;;25.95
71807;BMP280;59655;42.590;23.364;2022-08-19T11:53:18;91462.19;;;25.99
71807;BMP280;59655;42.590;23.364;2022-08-19T11:55:44;91462.22;;;26.01
71807;BMP280;59655;42.590;23.364;2022-08-19T11:58:11;91460.91;;;26.02
71807;BMP280;59655;42.590;23.364;2022-08-19T12:00:38;91458.22;;;26.04
71807;BMP280;59655;42.590;23.364;2022-08-19T12:03:03;91452.09;;;26.04
71807;BMP280;59655;42.590;23.364;2022-08-19T12:05:29;91450.75;;;26.05
71807;BMP280;59655;42.590;23.364;2022-08-19T12:07:54;91443.50;;;26.13
71807;BMP280;59655;42.590;23.364;2022-08-19T12:10:20;91443.59;;;26.17
71807;BMP280;59655;42.590;23.364;2022-08-19T12:12:46;91446.38;;;26.19
71807;BMP280;59655;42.590;23.364;2022-08-19T12:15:12;91445.22;;;26.29
71807;BMP280;59655;42.590;23.364;2022-08-19T12:17:40;91436.22;;;26.52
71807;BMP280;59655;42.590;23.364;2022-08-19T12:20:07;91436.31;;;26.58
71807;BMP280;59655;42.590;23.364;2022-08-19T12:22:35;91429.78;;;26.69
71807;BMP280;59655;42.590;23.364;2022-08-19T12:25:01;91423.19;;;26.81
71807;BMP280;59655;42.590;23.364;2022-08-19T12:27:26;91430.22;;;26.92
71807;BMP280;59655;42.590;23.364;2022-08-19T12:29:51;91426.66;;;27.19
71807;BMP280;59655;42.590;23.364;2022-08-19T12:32:17;91418.59;;;27.25
71807;BMP280;59655;42.590;23.364;2022-08-19T12:34:42;91421.31;;;27.64
71807;BMP280;59655;42.590;23.364;2022-08-19T12:37:08;91426.72;;;28.50
71807;BMP280;59655;42.590;23.364;2022-08-19T12:39:36;91414.72;;;29.35
71807;BMP280;59655;42.590;23.364;2022-08-19T12:42:02;91413.34;;;30.19
71807;BMP280;59655;42.590;23.364;2022-08-19T12:44:27;91409.38;;;30.42
71807;BMP280;59655;42.590;23.364;2022-08-19T12:46:54;91410.88;;;30.63
71807;BMP280;59655;42.590;23.364;2022-08-19T12:49:19;91407.59;;;31.16
71807;BMP280;59655;42.590;23.364;2022-08-19T12:51:44;91409.72;;;31.42
71807;BMP280;59655;42.590;23.364;2022-08-19T12:54:11;91403.56;;;31.70
71807;BMP280;59655;42.590;23.364;2022-08-19T12:56:36;91402.19;;;31.91
71807;BMP280;59655;42.590;23.364;2022-08-19T12:59:03;91415.88;;;32.14
71807;BMP280;59655;42.590;23.364;2022-08-19T13:01:29;91411.72;;;32.29
71807;BMP280;59655;42.590;23.364;2022-08-19T13:03:58;91400.75;;;32.21
71807;BMP280;59655;42.590;23.364;2022-08-19T13:06:23;91410.41;;;32.16
71807;BMP280;59655;42.590;23.364;2022-08-19T13:08:48;91408.28;;;32.35
71807;BMP280;59655;42.590;23.364;2022-08-19T13:11:16;91410.75;;;33.06
71807;BMP280;59655;42.590;23.364;2022-08-19T13:13:44;91415.41;;;33.30
71807;BMP280;59655;42.590;23.364;2022-08-19T13:16:11;91408.72;;;33.00
71807;BMP280;59655;42.590;23.364;2022-08-19T13:18:38;91411.34;;;33.21
71807;BMP280;59655;42.590;23.364;2022-08-19T13:21:05;91402.34;;;33.28
71807;BMP280;59655;42.590;23.364;2022-08-19T13:23:31;91403.66;;;33.39
71807;BMP280;59655;42.590;23.364;2022-08-19T13:25:58;91413.69;;;33.76
71807;BMP280;59655;42.590;23.364;2022-08-19T13:28:24;91408.31;;;33.59
71807;BMP280;59655;42.590;23.364;2022-08-19T13:30:50;91406.16;;;33.74
71807;BMP280;59655;42.590;23.364;2022-08-19T13:33:33;91402.66;;;33.80
71807;BMP280;59655;42.590;23.364;2022-08-19T13:36:01;91405.38;;;33.84
71807;BMP280;59655;42.590;23.364;2022-08-19T13:38:27;91395.75;;;33.85
71807;BMP280;59655;42.590;23.364;2022-08-19T13:40:54;91397.84;;;33.76
71807;BMP280;59655;42.590;23.364;2022-08-19T13:43:22;91395.88;;;33.66
71807;BMP280;59655;42.590;23.364;2022-08-19T13:45:49;91386.00;;;33.96
71807;BMP280;59655;42.590;23.364;2022-08-19T13:48:15;91393.50;;;34.04
71807;BMP280;59655;42.590;23.364;2022-08-19T13:50:43;91386.00;;;33.92
71807;BMP280;59655;42.590;23.364;2022-08-19T13:53:11;91383.31;;;33.88
71807;BMP280;59655;42.590;23.364;2022-08-19T13:55:41;91379.72;;;34.00
71807;BMP280;59655;42.590;23.364;2022-08-19T13:58:07;91380.63;;;33.80
71807;BMP280;59655;42.590;23.364;2022-08-19T14:00:37;91382.13;;;33.66
71807;BMP280;59655;42.590;23.364;2022-08-19T14:03:04;91375.91;;;33.70
71807;BMP280;59655;42.590;23.364;2022-08-19T14:05:30;91378.78;;;33.50
71807;BMP280;59655;42.590;23.364;2022-08-19T14:07:55;91380.75;;;33.65
71807;BMP280;59655;42.590;23.364;2022-08-19T14:10:24;91375.25;;;33.65